sensor_id;sensor_type;location;lat;lon;timestamp;P1;durP1;ratioP1;P2;durP2;ratioP2
1136;SDS011;557;48.466;7.950;2022-11-14T00:00:43;11.80;;;7.60;;
1136;SDS011;557;48.466;7.950;2022-11-14T00:03:29;10.80;;;6.73;;
1136;SDS011;557;48.466;7.950;2022-11-14T00:06:15;10.50;;;6.80;;
1136;SDS011;557;48.466;7.950;2022-11-14T00:09:00;12.70;;;7.63;;
1136;SDS011;557;48.466;7.950;2022-11-14T00:11:47;9.27;;;6.23;;
1136;SDS011;557;48.466;7.950;2022-11-14T00:14:33;8.60;;;6.30;;
1136;SDS011;557;48.466;7.950;2022-11-14T00:17:18;9.97;;;6.63;;
1136;SDS011;557;48.466;7.950;2022-11-14T00:20:04;10.47;;;6.53;;
1136;SDS011;557;48.466;7.950;2022-11-14T00:22:51;8.50;;;6.10;;
1136;SDS011;557;48.466;7.950;2022-11-14T00:25:37;8.80;;;6.47;;
1136;SDS011;557;48.466;7.950;2022-11-14T00:28:23;12.80;;;6.97;;
1136;SDS011;557;48.466;7.950;2022-11-14T00:31:09;6.63;;;5.10;;
1136;SDS011;557;48.466;7.950;2022-11-14T00:33:55;12.40;;;7.47;;
1136;SDS011;557;48.466;7.950;2022-11-14T00:36:41;11.47;;;6.30;;
1136;SDS011;557;48.466;7.950;2022-11-14T00:39:26;6.93;;;5.10;;
1136;SDS011;557;48.466;7.950;2022-11-14T00:42:12;10.17;;;6.27;;
1136;SDS011;557;48.466;7.950;2022-11-14T00:45:00;8.60;;;5.80;;
1136;SDS011;557;48.466;7.950;2022-11-14T00:47:45;10.40;;;5.90;;
1136;SDS011;557;48.466;7.950;2022-11-14T00:50:31;10.43;;;6.60;;
1136;SDS011;557;48.466;7.950;2022-11-14T00:53:16;9.00;;;5.50;;
1136;SDS011;557;48.466;7.950;2022-11-14T00:56:02;8.53;;;5.80;;
1136;SDS011;557;48.466;7.950;2022-11-14T00:58:48;12.47;;;7.20;;
1136;SDS011;557;48.466;7.950;2022-11-14T01:01:35;11.33;;;6.60;;
1136;SDS011;557;48.466;7.950;2022-11-14T01:04:20;8.53;;;5.63;;
1136;SDS011;557;48.466;7.950;2022-11-14T01:07:06;8.97;;;6.20;;
1136;SDS011;557;48.466;7.950;2022-11-14T01:09:51;9.47;;;5.63;;
1136;SDS011;557;48.466;7.950;2022-11-14T01:12:37;10.90;;;6.27;;
1136;SDS011;557;48.466;7.950;2022-11-14T01:15:22;10.27;;;6.60;;
1136;SDS011;557;48.466;7.950;2022-11-14T01:18:10;9.93;;;6.33;;
1136;SDS011;557;48.466;7.950;2022-11-14T01:20:56;10.10;;;6.53;;
1136;SDS011;557;48.466;7.950;2022-11-14T01:23:42;10.63;;;7.00;;
1136;SDS011;557;48.466;7.950;2022-11-14T04:24:01;7.30;;;4.47;;
1136;SDS011;557;48.466;7.950;2022-11-14T04:26:47;6.37;;;4.20;;
1136;SDS011;557;48.466;7.950;2022-11-14T04:29:33;7.23;;;4.53;;
1136;SDS011;557;48.466;7.950;2022-11-14T04:32:18;9.10;;;5.10;;
1136;SDS011;557;48.466;7.950;2022-11-14T04:35:04;8.40;;;4.80;;
1136;SDS011;557;48.466;7.950;2022-11-14T04:37:50;8.97;;;5.27;;
1136;SDS011;557;48.466;7.950;2022-11-14T04:40:37;8.90;;;5.80;;
1136;SDS011;557;48.466;7.950;2022-11-14T04:43:23;9.50;;;5.93;;
1136;SDS011;557;48.466;7.950;2022-11-14T04:46:09;10.27;;;6.20;;
1136;SDS011;557;48.466;7.950;2022-11-14T04:48:54;12.03;;;6.70;;
1136;SDS011;557;48.466;7.950;2022-11-14T04:51:40;10.07;;;5.00;;
1136;SDS011;557;48.466;7.950;2022-11-14T04:54:25;11.47;;;6.23;;
1136;SDS011;557;48.466;7.950;2022-11-14T04:57:12;17.30;;;6.97;;
1136;SDS011;557;48.466;7.950;2022-11-14T04:59:59;12.40;;;7.37;;
1136;SDS011;557;48.466;7.950;2022-11-14T05:02:44;14.13;;;6.40;;
1136;SDS011;557;48.466;7.950;2022-11-14T05:05:30;10.23;;;6.00;;
1136;SDS011;557;48.466;7.950;2022-11-14T05:08:16;12.87;;;6.30;;
1136;SDS011;557;48.466;7.950;2022-11-14T05:11:02;11.93;;;6.23;;
1136;SDS011;557;48.466;7.950;2022-11-14T05:13:49;7.73;;;4.57;;
1136;SDS011;557;48.466;7.950;2022-11-14T05:16:35;6.93;;;4.60;;
1136;SDS011;557;48.466;7.950;2022-11-14T05:19:20;8.30;;;5.07;;
1136;SDS011;557;48.466;7.950;2022-11-14T05:22:05;7.00;;;4.37;;
1136;SDS011;557;48.466;7.950;2022-11-14T05:24:51;9.90;;;5.37;;
1136;SDS011;557;48.466;7.950;2022-11-14T05:27:36;11.30;;;6.47;;
1136;SDS011;557;48.466;7.950;2022-11-14T05:30:23;9.10;;;5.10;;
1136;SDS011;557;48.466;7.950;2022-11-14T05:33:09;12.27;;;5.97;;
1136;SDS011;557;48.466;7.950;2022-11-14T05:35:54;7.30;;;5.17;;
1136;SDS011;557;48.466;7.950;2022-11-14T05:38:40;10.03;;;5.33;;
1136;SDS011;557;48.466;7.950;2022-11-14T05:41:26;13.00;;;6.83;;
1136;SDS011;557;48.466;7.950;2022-11-14T05:44:11;15.17;;;6.80;;
1136;SDS011;557;48.466;7.950;2022-11-14T05:46:58;14.80;;;6.90;;
1136;SDS011;557;48.466;7.950;2022-11-14T05:49:44;11.53;;;5.83;;
1136;SDS011;557;48.466;7.950;2022-11-14T05:52:30;9.10;;;5.37;;
1136;SDS011;557;48.466;7.950;2022-11-14T05:55:15;11.20;;;5.40;;
1136;SDS011;557;48.466;7.950;2022-11-14T05:58:01;7.83;;;5.60;;
1136;SDS011;557;48.466;7.950;2022-11-14T06:00:47;9.43;;;5.60;;
1136;SDS011;557;48.466;7.950;2022-11-14T06:03:34;12.83;;;6.10;;
1136;SDS011;557;48.466;7.950;2022-11-14T06:06:21;10.67;;;5.33;;
1136;SDS011;557;48.466;7.950;2022-11-14T06:09:07;13.63;;;5.53;;
1136;SDS011;557;48.466;7.950;2022-11-14T06:11:53;11.30;;;5.77;;
1136;SDS011;557;48.466;7.950;2022-11-14T06:14:38;8.20;;;5.10;;
1136;SDS011;557;48.466;7.950;2022-11-14T06:17:24;13.60;;;6.40;;
1136;SDS011;557;48.466;7.950;2022-11-14T06:20:11;7.07;;;4.93;;
1136;SDS011;557;48.466;7.950;2022-11-14T06:22:58;8.30;;;4.93;;
1136;SDS011;557;48.466;7.950;2022-11-14T06:25:44;6.03;;;3.87;;
1136;SDS011;557;48.466;7.950;2022-11-14T06:28:29;6.10;;;3.60;;
1136;SDS011;557;48.466;7.950;2022-11-14T06:31:15;5.50;;;3.00;;
1136;SDS011;557;48.466;7.950;2022-11-14T06:34:03;5.77;;;3.33;;
1136;SDS011;557;48.466;7.950;2022-11-14T06:36:50;3.70;;;2.87;;
1136;SDS011;557;48.466;7.950;2022-11-14T06:39:36;4.40;;;2.77;;
1136;SDS011;557;48.466;7.950;2022-11-14T06:42:21;9.00;;;5.40;;
1136;SDS011;557;48.466;7.950;2022-11-14T06:45:07;7.90;;;5.30;;
1136;SDS011;557;48.466;7.950;2022-11-14T06:47:56;9.17;;;4.63;;
1136;SDS011;557;48.466;7.950;2022-11-14T06:50:42;7.07;;;4.30;;
1136;SDS011;557;48.466;7.950;2022-11-14T06:53:30;7.03;;;4.27;;
1136;SDS011;557;48.466;7.950;2022-11-14T06:56:17;5.53;;;3.70;;
1136;SDS011;557;48.466;7.950;2022-11-14T06:59:04;5.67;;;3.27;;
1136;SDS011;557;48.466;7.950;2022-11-14T07:01:49;5.17;;;3.10;;
1136;SDS011;557;48.466;7.950;2022-11-14T07:04:35;3.93;;;2.87;;
1136;SDS011;557;48.466;7.950;2022-11-14T07:07:20;4.70;;;2.60;;
1136;SDS011;557;48.466;7.950;2022-11-14T07:10:08;4.00;;;2.37;;
1136;SDS011;557;48.466;7.950;2022-11-14T07:12:54;3.37;;;2.57;;
1136;SDS011;557;48.466;7.950;2022-11-14T07:15:39;4.33;;;2.70;;
1136;SDS011;557;48.466;7.950;2022-11-14T07:18:34;5.33;;;2.87;;
1136;SDS011;557;48.466;7.950;2022-11-14T07:21:20;5.13;;;3.30;;
1136;SDS011;557;48.466;7.950;2022-11-14T07:24:06;5.17;;;3.20;;
1136;SDS011;557;48.466;7.950;2022-11-14T07:26:53;6.13;;;3.93;;
1136;SDS011;557;48.466;7.950;2022-11-14T07:29:39;3.90;;;2.67;;
1136;SDS011;557;48.466;7.950;2022-11-14T07:32:25;6.27;;;3.90;;
1136;SDS011;557;48.466;7.950;2022-11-14T07:35:10;5.90;;;4.27;;
1136;SDS011;557;48.466;7.950;2022-11-14T07:37:59;8.23;;;3.60;;
1136;SDS011;557;48.466;7.950;2022-11-14T07:40:51;3.90;;;2.80;;
1136;SDS011;557;48.466;7.950;2022-11-14T07:43:39;6.10;;;3.17;;
1136;SDS011;557;48.466;7.950;2022-11-14T07:46:26;4.07;;;2.83;;
1136;SDS011;557;48.466;7.950;2022-11-14T07:49:11;4.27;;;2.87;;
1136;SDS011;557;48.466;7.950;2022-11-14T07:51:57;4.53;;;2.63;;
1136;SDS011;557;48.466;7.950;2022-11-14T07:54:42;5.13;;;2.93;;
1136;SDS011;557;48.466;7.950;2022-11-14T07:57:28;4.60;;;3.03;;
1136;SDS011;557;48.466;7.950;2022-11-14T08:00:15;4.53;;;3.10;;
1136;SDS011;557;48.466;7.950;2022-11-14T08:03:01;3.97;;;2.47;;
1136;SDS011;557;48.466;7.950;2022-11-14T08:05:47;5.20;;;3.10;;
1136;SDS011;557;48.466;7.950;2022-11-14T08:08:32;5.33;;;3.10;;
1136;SDS011;557;48.466;7.950;2022-11-14T08:11:19;4.13;;;3.17;;
1136;SDS011;557;48.466;7.950;2022-11-14T08:14:25;8.10;;;4.80;;
1136;SDS011;557;48.466;7.950;2022-11-14T08:17:12;5.00;;;3.80;;
1136;SDS011;557;48.466;7.950;2022-11-14T08:19:58;4.50;;;2.70;;
1136;SDS011;557;48.466;7.950;2022-11-14T08:22:43;4.60;;;2.90;;
1136;SDS011;557;48.466;7.950;2022-11-14T08:25:29;4.33;;;2.90;;
1136;SDS011;557;48.466;7.950;2022-11-14T08:28:15;5.30;;;3.77;;
1136;SDS011;557;48.466;7.950;2022-11-14T08:31:03;5.00;;;2.90;;
1136;SDS011;557;48.466;7.950;2022-11-14T08:33:51;5.07;;;3.43;;
1136;SDS011;557;48.466;7.950;2022-11-14T08:36:38;3.73;;;2.60;;
1136;SDS011;557;48.466;7.950;2022-11-14T08:39:24;2.87;;;2.13;;
1136;SDS011;557;48.466;7.950;2022-11-14T08:42:10;4.87;;;2.60;;
1136;SDS011;557;48.466;7.950;2022-11-14T08:44:56;4.17;;;2.20;;
1136;SDS011;557;48.466;7.950;2022-11-14T08:47:41;3.53;;;2.47;;
1136;SDS011;557;48.466;7.950;2022-11-14T08:50:35;3.60;;;2.47;;
1136;SDS011;557;48.466;7.950;2022-11-14T08:53:21;4.77;;;3.33;;
1136;SDS011;557;48.466;7.950;2022-11-14T08:56:07;3.87;;;2.87;;
1136;SDS011;557;48.466;7.950;2022-11-14T08:58:54;4.10;;;2.87;;
1136;SDS011;557;48.466;7.950;2022-11-14T09:01:40;3.97;;;2.80;;
1136;SDS011;557;48.466;7.950;2022-11-14T09:04:26;5.83;;;4.13;;
1136;SDS011;557;48.466;7.950;2022-11-14T09:07:13;4.90;;;3.30;;
1136;SDS011;557;48.466;7.950;2022-11-14T09:09:58;9.93;;;6.30;;
1136;SDS011;557;48.466;7.950;2022-11-14T09:12:44;4.87;;;3.97;;
1136;SDS011;557;48.466;7.950;2022-11-14T09:15:29;4.67;;;3.43;;
1136;SDS011;557;48.466;7.950;2022-11-14T09:18:16;5.87;;;3.13;;
1136;SDS011;557;48.466;7.950;2022-11-14T09:21:02;4.53;;;3.40;;
1136;SDS011;557;48.466;7.950;2022-11-14T09:23:51;9.50;;;3.90;;
1136;SDS011;557;48.466;7.950;2022-11-14T09:26:37;5.13;;;3.20;;
1136;SDS011;557;48.466;7.950;2022-11-14T09:29:27;5.23;;;3.43;;
1136;SDS011;557;48.466;7.950;2022-11-14T09:32:13;6.83;;;3.50;;
1136;SDS011;557;48.466;7.950;2022-11-14T09:34:58;6.23;;;2.90;;
1136;SDS011;557;48.466;7.950;2022-11-14T09:37:44;4.37;;;2.87;;
1136;SDS011;557;48.466;7.950;2022-11-14T09:40:31;3.70;;;2.60;;
1136;SDS011;557;48.466;7.950;2022-11-14T09:43:35;4.80;;;3.37;;
1136;SDS011;557;48.466;7.950;2022-11-14T09:46:32;4.30;;;2.93;;
1136;SDS011;557;48.466;7.950;2022-11-14T09:49:24;4.23;;;2.67;;
1136;SDS011;557;48.466;7.950;2022-11-14T09:52:15;4.80;;;2.90;;
1136;SDS011;557;48.466;7.950;2022-11-14T09:55:11;4.33;;;2.60;;
1136;SDS011;557;48.466;7.950;2022-11-14T09:58:03;3.03;;;2.33;;
1136;SDS011;557;48.466;7.950;2022-11-14T10:00:51;4.80;;;3.80;;
1136;SDS011;557;48.466;7.950;2022-11-14T10:03:43;5.97;;;3.37;;
1136;SDS011;557;48.466;7.950;2022-11-14T10:06:39;4.23;;;3.00;;
1136;SDS011;557;48.466;7.950;2022-11-14T10:09:34;5.53;;;3.67;;
1136;SDS011;557;48.466;7.950;2022-11-14T10:12:35;5.27;;;3.33;;
1136;SDS011;557;48.466;7.950;2022-11-14T10:15:29;4.90;;;3.30;;
1136;SDS011;557;48.466;7.950;2022-11-14T10:18:26;6.57;;;4.00;;
1136;SDS011;557;48.466;7.950;2022-11-14T10:21:34;5.57;;;3.40;;
1136;SDS011;557;48.466;7.950;2022-11-14T10:24:45;4.80;;;3.43;;
1136;SDS011;557;48.466;7.950;2022-11-14T10:27:49;5.93;;;4.40;;
1136;SDS011;557;48.466;7.950;2022-11-14T10:30:48;7.33;;;4.43;;
1136;SDS011;557;48.466;7.950;2022-11-14T10:33:45;10.17;;;6.10;;
1136;SDS011;557;48.466;7.950;2022-11-14T10:36:51;5.33;;;3.93;;
1136;SDS011;557;48.466;7.950;2022-11-14T10:39:43;6.77;;;5.07;;
1136;SDS011;557;48.466;7.950;2022-11-14T10:42:34;6.23;;;4.50;;
1136;SDS011;557;48.466;7.950;2022-11-14T10:45:23;7.20;;;5.27;;
1136;SDS011;557;48.466;7.950;2022-11-14T10:48:13;8.13;;;4.83;;
1136;SDS011;557;48.466;7.950;2022-11-14T10:51:01;8.10;;;5.53;;
1136;SDS011;557;48.466;7.950;2022-11-14T10:53:51;9.00;;;6.30;;
1136;SDS011;557;48.466;7.950;2022-11-14T10:56:44;10.47;;;6.43;;
1136;SDS011;557;48.466;7.950;2022-11-14T10:59:31;10.70;;;7.27;;
1136;SDS011;557;48.466;7.950;2022-11-14T11:02:17;12.50;;;7.77;;
1136;SDS011;557;48.466;7.950;2022-11-14T11:05:10;13.83;;;7.00;;
1136;SDS011;557;48.466;7.950;2022-11-14T11:07:59;10.67;;;6.80;;
1136;SDS011;557;48.466;7.950;2022-11-14T11:11:03;10.70;;;7.10;;
1136;SDS011;557;48.466;7.950;2022-11-14T11:14:14;12.13;;;7.40;;
1136;SDS011;557;48.466;7.950;2022-11-14T11:17:14;13.50;;;7.20;;
1136;SDS011;557;48.466;7.950;2022-11-14T11:23:17;11.20;;;6.83;;
1136;SDS011;557;48.466;7.950;2022-11-14T11:26:06;12.80;;;7.43;;
1136;SDS011;557;48.466;7.950;2022-11-14T11:29:01;12.07;;;8.63;;
1136;SDS011;557;48.466;7.950;2022-11-14T11:31:51;11.37;;;7.23;;
1136;SDS011;557;48.466;7.950;2022-11-14T11:34:41;12.07;;;7.77;;
1136;SDS011;557;48.466;7.950;2022-11-14T11:37:29;10.30;;;7.80;;
1136;SDS011;557;48.466;7.950;2022-11-14T11:40:17;15.30;;;8.07;;
1136;SDS011;557;48.466;7.950;2022-11-14T11:43:08;18.27;;;8.83;;
1136;SDS011;557;48.466;7.950;2022-11-14T11:45:58;11.23;;;7.60;;
1136;SDS011;557;48.466;7.950;2022-11-14T11:48:48;11.33;;;7.40;;
1136;SDS011;557;48.466;7.950;2022-11-14T11:51:40;13.07;;;9.00;;
1136;SDS011;557;48.466;7.950;2022-11-14T11:54:32;13.30;;;8.40;;
1136;SDS011;557;48.466;7.950;2022-11-14T11:57:30;11.33;;;7.83;;
1136;SDS011;557;48.466;7.950;2022-11-14T12:00:19;9.90;;;6.80;;
1136;SDS011;557;48.466;7.950;2022-11-14T12:03:08;9.07;;;6.93;;
1136;SDS011;557;48.466;7.950;2022-11-14T12:06:00;12.53;;;7.20;;
1136;SDS011;557;48.466;7.950;2022-11-14T12:08:56;8.87;;;5.73;;
1136;SDS011;557;48.466;7.950;2022-11-14T12:11:53;7.73;;;5.60;;
1136;SDS011;557;48.466;7.950;2022-11-14T12:14:54;8.17;;;5.07;;
1136;SDS011;557;48.466;7.950;2022-11-14T12:17:55;5.50;;;4.60;;
1136;SDS011;557;48.466;7.950;2022-11-14T12:21:04;9.87;;;5.17;;
1136;SDS011;557;48.466;7.950;2022-11-14T12:24:03;6.00;;;3.63;;
1136;SDS011;557;48.466;7.950;2022-11-14T12:27:12;6.13;;;3.70;;
1136;SDS011;557;48.466;7.950;2022-11-14T12:30:08;7.77;;;5.67;;
1136;SDS011;557;48.466;7.950;2022-11-14T12:32:58;5.40;;;4.00;;
1136;SDS011;557;48.466;7.950;2022-11-14T12:35:48;8.00;;;4.83;;
1136;SDS011;557;48.466;7.950;2022-11-14T12:38:39;5.73;;;4.20;;
1136;SDS011;557;48.466;7.950;2022-11-14T12:41:29;6.20;;;4.20;;
1136;SDS011;557;48.466;7.950;2022-11-14T12:44:18;6.03;;;4.37;;
1136;SDS011;557;48.466;7.950;2022-11-14T12:47:16;4.27;;;3.30;;
1136;SDS011;557;48.466;7.950;2022-11-14T12:50:09;5.60;;;2.83;;
1136;SDS011;557;48.466;7.950;2022-11-14T12:53:38;6.47;;;3.07;;
1136;SDS011;557;48.466;7.950;2022-11-14T12:59:39;5.27;;;2.37;;
1136;SDS011;557;48.466;7.950;2022-11-14T13:06:09;5.67;;;2.80;;
1136;SDS011;557;48.466;7.950;2022-11-14T13:09:17;4.60;;;3.07;;
1136;SDS011;557;48.466;7.950;2022-11-14T13:12:25;4.63;;;2.23;;
1136;SDS011;557;48.466;7.950;2022-11-14T13:15:32;4.30;;;2.37;;
1136;SDS011;557;48.466;7.950;2022-11-14T13:25:20;6.07;;;3.50;;
1136;SDS011;557;48.466;7.950;2022-11-14T13:31:42;3.77;;;3.30;;
1136;SDS011;557;48.466;7.950;2022-11-14T13:34:44;3.80;;;3.50;;
1136;SDS011;557;48.466;7.950;2022-11-14T13:37:42;4.63;;;3.67;;
1136;SDS011;557;48.466;7.950;2022-11-14T13:40:45;4.87;;;4.47;;
1136;SDS011;557;48.466;7.950;2022-11-14T13:43:40;4.70;;;4.30;;
1136;SDS011;557;48.466;7.950;2022-11-14T13:46:42;4.90;;;4.60;;
1136;SDS011;557;48.466;7.950;2022-11-14T13:49:47;4.70;;;4.40;;
1136;SDS011;557;48.466;7.950;2022-11-14T13:52:41;4.87;;;4.47;;
1136;SDS011;557;48.466;7.950;2022-11-14T13:55:30;5.50;;;5.00;;
1136;SDS011;557;48.466;7.950;2022-11-14T13:58:41;5.40;;;4.93;;
1136;SDS011;557;48.466;7.950;2022-11-14T14:01:44;5.63;;;5.23;;
1136;SDS011;557;48.466;7.950;2022-11-14T14:04:54;6.00;;;5.60;;
1136;SDS011;557;48.466;7.950;2022-11-14T14:08:00;5.07;;;4.67;;
1136;SDS011;557;48.466;7.950;2022-11-14T14:10:58;5.43;;;5.00;;
1136;SDS011;557;48.466;7.950;2022-11-14T14:13:58;5.40;;;5.00;;
1136;SDS011;557;48.466;7.950;2022-11-14T14:16:52;6.03;;;5.53;;
1136;SDS011;557;48.466;7.950;2022-11-14T14:19:46;6.23;;;4.90;;
1136;SDS011;557;48.466;7.950;2022-11-14T14:22:45;5.77;;;5.27;;
1136;SDS011;557;48.466;7.950;2022-11-14T14:25:41;5.90;;;5.40;;
1136;SDS011;557;48.466;7.950;2022-11-14T14:28:36;7.83;;;6.00;;
1136;SDS011;557;48.466;7.950;2022-11-14T14:31:31;6.17;;;5.67;;
1136;SDS011;557;48.466;7.950;2022-11-14T14:34:23;7.10;;;6.60;;
1136;SDS011;557;48.466;7.950;2022-11-14T14:37:15;6.80;;;6.30;;
1136;SDS011;557;48.466;7.950;2022-11-14T14:40:03;7.40;;;6.80;;
1136;SDS011;557;48.466;7.950;2022-11-14T14:42:51;7.80;;;7.20;;
1136;SDS011;557;48.466;7.950;2022-11-14T14:45:43;6.80;;;6.30;;
1136;SDS011;557;48.466;7.950;2022-11-14T14:48:32;7.47;;;7.00;;
1136;SDS011;557;48.466;7.950;2022-11-14T14:51:29;7.87;;;7.23;;
1136;SDS011;557;48.466;7.950;2022-11-14T14:54:20;6.93;;;6.53;;
1136;SDS011;557;48.466;7.950;2022-11-14T14:57:14;7.30;;;6.80;;
1136;SDS011;557;48.466;7.950;2022-11-14T15:00:03;8.37;;;7.50;;
1136;SDS011;557;48.466;7.950;2022-11-14T15:02:51;7.63;;;7.13;;
1136;SDS011;557;48.466;7.950;2022-11-14T15:05:40;7.23;;;6.83;;
1136;SDS011;557;48.466;7.950;2022-11-14T15:08:27;8.53;;;7.93;;
1136;SDS011;557;48.466;7.950;2022-11-14T15:11:13;7.93;;;7.43;;
1136;SDS011;557;48.466;7.950;2022-11-14T15:13:59;7.77;;;7.27;;
1136;SDS011;557;48.466;7.950;2022-11-14T15:16:46;7.67;;;7.20;;
1136;SDS011;557;48.466;7.950;2022-11-14T15:19:36;7.17;;;6.77;;
1136;SDS011;557;48.466;7.950;2022-11-14T15:22:24;7.23;;;6.83;;
1136;SDS011;557;48.466;7.950;2022-11-14T15:25:19;7.50;;;7.00;;
1136;SDS011;557;48.466;7.950;2022-11-14T15:28:11;7.50;;;7.10;;
1136;SDS011;557;48.466;7.950;2022-11-14T15:30:59;7.57;;;7.10;;
1136;SDS011;557;48.466;7.950;2022-11-14T15:33:58;7.80;;;7.20;;
1136;SDS011;557;48.466;7.950;2022-11-14T15:40:13;7.57;;;7.17;;
1136;SDS011;557;48.466;7.950;2022-11-14T15:46:25;7.40;;;7.00;;
1136;SDS011;557;48.466;7.950;2022-11-14T15:49:19;8.20;;;7.40;;
1136;SDS011;557;48.466;7.950;2022-11-14T15:52:09;6.80;;;6.40;;
1136;SDS011;557;48.466;7.950;2022-11-14T15:55:09;7.50;;;7.00;;
1136;SDS011;557;48.466;7.950;2022-11-14T15:57:58;6.90;;;6.50;;
1136;SDS011;557;48.466;7.950;2022-11-14T16:00:45;6.67;;;6.27;;
1136;SDS011;557;48.466;7.950;2022-11-14T16:03:34;6.50;;;6.00;;
1136;SDS011;557;48.466;7.950;2022-11-14T16:06:19;5.67;;;5.23;;
1136;SDS011;557;48.466;7.950;2022-11-14T16:09:05;4.27;;;3.97;;
1136;SDS011;557;48.466;7.950;2022-11-14T16:11:50;8.30;;;4.37;;
1136;SDS011;557;48.466;7.950;2022-11-14T16:14:36;8.70;;;6.00;;
1136;SDS011;557;48.466;7.950;2022-11-14T16:17:23;12.43;;;9.10;;
1136;SDS011;557;48.466;7.950;2022-11-14T16:20:10;4.90;;;4.00;;
1136;SDS011;557;48.466;7.950;2022-11-14T16:22:59;3.83;;;3.30;;
1136;SDS011;557;48.466;7.950;2022-11-14T16:25:45;4.00;;;3.37;;
1136;SDS011;557;48.466;7.950;2022-11-14T16:28:31;4.13;;;3.73;;
1136;SDS011;557;48.466;7.950;2022-11-14T16:31:17;4.80;;;3.70;;
1136;SDS011;557;48.466;7.950;2022-11-14T16:34:04;5.30;;;3.87;;
1136;SDS011;557;48.466;7.950;2022-11-14T16:36:52;4.37;;;3.97;;
1136;SDS011;557;48.466;7.950;2022-11-14T16:39:42;4.17;;;3.47;;
1136;SDS011;557;48.466;7.950;2022-11-14T16:42:27;4.73;;;3.73;;
1136;SDS011;557;48.466;7.950;2022-11-14T16:45:13;3.93;;;3.50;;
1136;SDS011;557;48.466;7.950;2022-11-14T16:47:59;4.10;;;3.70;;
1136;SDS011;557;48.466;7.950;2022-11-14T16:50:46;4.63;;;4.20;;
1136;SDS011;557;48.466;7.950;2022-11-14T16:53:32;4.60;;;4.10;;
1136;SDS011;557;48.466;7.950;2022-11-14T16:56:17;5.23;;;3.80;;
1136;SDS011;557;48.466;7.950;2022-11-14T16:59:03;6.40;;;3.83;;
1136;SDS011;557;48.466;7.950;2022-11-14T17:01:49;5.73;;;3.90;;
1136;SDS011;557;48.466;7.950;2022-11-14T17:04:34;4.20;;;3.80;;
1136;SDS011;557;48.466;7.950;2022-11-14T17:07:21;5.13;;;4.63;;
1136;SDS011;557;48.466;7.950;2022-11-14T17:10:07;5.13;;;4.57;;
1136;SDS011;557;48.466;7.950;2022-11-14T17:12:53;4.83;;;3.80;;
1136;SDS011;557;48.466;7.950;2022-11-14T17:15:38;6.03;;;4.13;;
1136;SDS011;557;48.466;7.950;2022-11-14T17:18:24;6.20;;;4.23;;
1136;SDS011;557;48.466;7.950;2022-11-14T17:21:10;5.17;;;3.50;;
1136;SDS011;557;48.466;7.950;2022-11-14T17:23:58;6.60;;;4.53;;
1136;SDS011;557;48.466;7.950;2022-11-14T17:26:45;5.30;;;4.53;;
1136;SDS011;557;48.466;7.950;2022-11-14T17:29:31;6.63;;;4.30;;
1136;SDS011;557;48.466;7.950;2022-11-14T17:32:16;4.47;;;3.73;;
1136;SDS011;557;48.466;7.950;2022-11-14T17:35:02;6.60;;;5.07;;
1136;SDS011;557;48.466;7.950;2022-11-14T17:37:48;6.20;;;5.10;;
1136;SDS011;557;48.466;7.950;2022-11-14T17:40:34;6.43;;;4.80;;
1136;SDS011;557;48.466;7.950;2022-11-14T17:43:20;7.67;;;5.20;;
1136;SDS011;557;48.466;7.950;2022-11-14T17:46:05;10.20;;;7.30;;
1136;SDS011;557;48.466;7.950;2022-11-14T17:48:53;7.13;;;4.80;;
1136;SDS011;557;48.466;7.950;2022-11-14T17:51:38;8.87;;;4.87;;
1136;SDS011;557;48.466;7.950;2022-11-14T17:54:24;8.10;;;4.73;;
1136;SDS011;557;48.466;7.950;2022-11-14T17:57:11;7.67;;;4.90;;
1136;SDS011;557;48.466;7.950;2022-11-14T17:59:57;6.10;;;4.40;;
1136;SDS011;557;48.466;7.950;2022-11-14T18:02:43;5.00;;;3.70;;
1136;SDS011;557;48.466;7.950;2022-11-14T18:05:29;4.70;;;4.10;;
1136;SDS011;557;48.466;7.950;2022-11-14T18:08:14;7.80;;;4.20;;
1136;SDS011;557;48.466;7.950;2022-11-14T18:11:00;6.73;;;3.87;;
1136;SDS011;557;48.466;7.950;2022-11-14T18:13:47;7.73;;;4.23;;
1136;SDS011;557;48.466;7.950;2022-11-14T18:16:38;8.77;;;4.70;;
1136;SDS011;557;48.466;7.950;2022-11-14T18:19:23;9.07;;;4.43;;
1136;SDS011;557;48.466;7.950;2022-11-14T18:22:09;8.43;;;5.07;;
1136;SDS011;557;48.466;7.950;2022-11-14T18:24:54;7.77;;;5.40;;
1136;SDS011;557;48.466;7.950;2022-11-14T18:27:42;10.30;;;5.43;;
1136;SDS011;557;48.466;7.950;2022-11-14T18:30:29;10.80;;;4.83;;
1136;SDS011;557;48.466;7.950;2022-11-14T18:33:14;5.73;;;3.83;;
1136;SDS011;557;48.466;7.950;2022-11-14T18:36:01;7.03;;;4.27;;
1136;SDS011;557;48.466;7.950;2022-11-14T18:38:48;5.30;;;4.37;;
1136;SDS011;557;48.466;7.950;2022-11-14T18:41:34;7.07;;;4.90;;
1136;SDS011;557;48.466;7.950;2022-11-14T18:44:20;5.67;;;4.60;;
1136;SDS011;557;48.466;7.950;2022-11-14T18:47:08;6.90;;;4.03;;
1136;SDS011;557;48.466;7.950;2022-11-14T18:49:54;6.80;;;4.77;;
1136;SDS011;557;48.466;7.950;2022-11-14T18:52:42;6.43;;;4.60;;
1136;SDS011;557;48.466;7.950;2022-11-14T18:55:27;5.50;;;4.40;;
1136;SDS011;557;48.466;7.950;2022-11-14T18:58:13;5.53;;;4.60;;
1136;SDS011;557;48.466;7.950;2022-11-14T19:01:06;7.47;;;4.43;;
1136;SDS011;557;48.466;7.950;2022-11-14T19:03:55;5.83;;;3.80;;
1136;SDS011;557;48.466;7.950;2022-11-14T19:06:42;10.03;;;4.93;;
1136;SDS011;557;48.466;7.950;2022-11-14T19:09:27;8.90;;;5.37;;
1136;SDS011;557;48.466;7.950;2022-11-14T19:12:14;9.60;;;5.93;;
1136;SDS011;557;48.466;7.950;2022-11-14T19:15:05;9.70;;;4.50;;
1136;SDS011;557;48.466;7.950;2022-11-14T19:17:51;5.70;;;3.60;;
1136;SDS011;557;48.466;7.950;2022-11-14T19:20:38;8.67;;;4.03;;
1136;SDS011;557;48.466;7.950;2022-11-14T19:23:24;4.47;;;3.30;;
1136;SDS011;557;48.466;7.950;2022-11-14T19:26:10;6.87;;;3.77;;
1136;SDS011;557;48.466;7.950;2022-11-14T19:28:56;6.13;;;3.70;;
1136;SDS011;557;48.466;7.950;2022-11-14T19:31:45;5.23;;;3.70;;
1136;SDS011;557;48.466;7.950;2022-11-14T19:34:31;5.70;;;3.90;;
1136;SDS011;557;48.466;7.950;2022-11-14T19:37:18;6.17;;;3.87;;
1136;SDS011;557;48.466;7.950;2022-11-14T19:40:04;8.70;;;4.43;;
1136;SDS011;557;48.466;7.950;2022-11-14T19:42:51;8.77;;;3.70;;
1136;SDS011;557;48.466;7.950;2022-11-14T19:45:38;7.57;;;4.80;;
1136;SDS011;557;48.466;7.950;2022-11-14T19:48:24;5.83;;;3.70;;
1136;SDS011;557;48.466;7.950;2022-11-14T19:51:10;7.97;;;4.20;;
1136;SDS011;557;48.466;7.950;2022-11-14T19:53:58;6.93;;;4.00;;
1136;SDS011;557;48.466;7.950;2022-11-14T19:56:45;4.33;;;3.90;;
1136;SDS011;557;48.466;7.950;2022-11-14T19:59:31;5.77;;;3.90;;
1136;SDS011;557;48.466;7.950;2022-11-14T20:02:16;4.77;;;4.07;;
1136;SDS011;557;48.466;7.950;2022-11-14T20:05:02;6.07;;;4.27;;
1136;SDS011;557;48.466;7.950;2022-11-14T20:07:48;7.33;;;4.33;;
1136;SDS011;557;48.466;7.950;2022-11-14T20:10:34;8.97;;;5.70;;
1136;SDS011;557;48.466;7.950;2022-11-14T20:13:31;11.60;;;7.70;;
1136;SDS011;557;48.466;7.950;2022-11-14T20:16:19;6.90;;;4.50;;
1136;SDS011;557;48.466;7.950;2022-11-14T20:19:06;5.90;;;4.03;;
1136;SDS011;557;48.466;7.950;2022-11-14T20:21:51;5.90;;;3.53;;
1136;SDS011;557;48.466;7.950;2022-11-14T20:24:37;7.07;;;3.67;;
1136;SDS011;557;48.466;7.950;2022-11-14T20:27:24;4.20;;;3.43;;
1136;SDS011;557;48.466;7.950;2022-11-14T20:30:10;7.10;;;3.70;;
1136;SDS011;557;48.466;7.950;2022-11-14T20:32:56;5.83;;;3.77;;
1136;SDS011;557;48.466;7.950;2022-11-14T20:35:42;8.00;;;4.73;;
1136;SDS011;557;48.466;7.950;2022-11-14T20:38:28;5.00;;;3.70;;
1136;SDS011;557;48.466;7.950;2022-11-14T20:41:15;6.80;;;3.60;;
1136;SDS011;557;48.466;7.950;2022-11-14T20:44:02;6.20;;;3.80;;
1136;SDS011;557;48.466;7.950;2022-11-14T20:46:48;5.63;;;3.70;;
1136;SDS011;557;48.466;7.950;2022-11-14T20:49:33;9.10;;;4.30;;
1136;SDS011;557;48.466;7.950;2022-11-14T20:52:19;4.10;;;3.20;;
1136;SDS011;557;48.466;7.950;2022-11-14T20:55:05;4.43;;;3.43;;
1136;SDS011;557;48.466;7.950;2022-11-14T20:57:52;4.37;;;3.00;;
1136;SDS011;557;48.466;7.950;2022-11-14T21:00:39;6.77;;;3.77;;
1136;SDS011;557;48.466;7.950;2022-11-14T21:03:25;7.87;;;4.00;;
1136;SDS011;557;48.466;7.950;2022-11-14T21:06:11;7.77;;;4.07;;
1136;SDS011;557;48.466;7.950;2022-11-14T21:08:58;5.87;;;3.23;;